KHYS

Hays Regional Airport

Airport
ICAO code
KHYS
Summary
ICAO Region
NAM
ICAO Territory
Location

Hays, Kansas,

Elevation
1999 ft
Coordinates
38° 51' 14" N , 99° 16' 26" W
KCC
Airport CFIT
Altimeter Temperature Error Correction
Metar
Observation
KHYS 070956Z AUTO 01012KT 10SM CLR 07/M01 A3046 RMK AO2 SLP309 T00671011 $
Station
Hays, Hays Regional Airport
Date/Time
2022-10-07 09:56:00
Wind direction
10°
Wind speed
12 kts
Lowest cloud amount
n/a
Temperature
6.7°C
Dew point
-1.1°C
Humidity
57%
Weather condition
n/a

Description

Hays Regional Airport is a public-use airport located 6 km southeast of the central business district of Hays, a city in Ellis County, Kansas.

Climatology

Hays sits near the convergence of North America's humid subtropical climate (Köppen climate classification Cfa), humid continental climate (Köppen climate classification Dfa), and temperate semi-arid climate (Köppen climate classification BSk) zones and has features of all three climates. It has hot summers with variable humidity and cool winters. Most precipitation falls in the period between May and August.

Airport map

Aerial View

SKYbrary Partners:

Safety knowledge contributed by: